Time;durP1;ratioP1;P1;durP2;ratioP2;P2;SDS_P1;SDS_P2;PMS_P1;PMS_P2;Temp;Humidity;BMP_temperature;BMP_pressure;BME280_temperature;BME280_humidity;BME280_pressure;Samples;Min_cycle;Max_cycle;Signal;HPM_P1;HPM_P2
2022/07/13 00:00:04;;;;;;;2.25;1.00;;;25.70;59.70;;;;;;5093737;28;20049;-71
2022/07/13 00:02:29;;;;;;;1.90;1.05;;;25.70;61.30;;;;;;5095255;28;20219;-71
2022/07/13 00:04:55;;;;;;;2.17;1.00;;;25.60;61.90;;;;;;5096566;28;20020;-71
2022/07/13 00:07:21;;;;;;;3.78;1.55;;;25.50;62.10;;;;;;5096123;28;20028;-70
2022/07/13 00:09:47;;;;;;;2.90;1.35;;;25.30;63.40;;;;;;5088636;28;20035;-71
2022/07/13 00:12:13;;;;;;;2.60;1.42;;;25.20;64.90;;;;;;5081787;28;20404;-71
2022/07/13 00:14:39;;;;;;;2.28;1.45;;;25.00;66.70;;;;;;5082162;28;20020;-71
2022/07/13 00:17:04;;;;;;;5.05;1.42;;;24.90;67.10;;;;;;5086795;28;20039;-71
2022/07/13 00:19:30;;;;;;;1.30;1.10;;;24.80;67.30;;;;;;5084380;28;20046;-71
2022/07/13 00:21:56;;;;;;;3.30;1.50;;;24.60;67.10;;;;;;5088808;28;20032;-71
2022/07/13 00:24:22;;;;;;;2.95;1.70;;;24.50;68.50;;;;;;5084821;28;20027;-71
2022/07/13 00:26:48;;;;;;;2.08;1.17;;;24.40;69.90;;;;;;5090304;28;20024;-71
2022/07/13 00:29:14;;;;;;;2.00;1.35;;;24.30;70.80;;;;;;5088818;28;20027;-71
2022/07/13 00:31:41;;;;;;;1.40;0.93;;;24.20;72.80;;;;;;5092592;28;20030;-71
2022/07/13 00:34:07;;;;;;;1.58;1.10;;;24.10;72.30;;;;;;5094514;28;20069;-71
2022/07/13 00:36:32;;;;;;;4.65;1.52;;;24.10;72.50;;;;;;5093717;28;20020;-71
2022/07/13 00:38:58;;;;;;;2.60;1.20;;;24.00;73.50;;;;;;5097771;28;20496;-71
2022/07/13 00:41:24;;;;;;;2.28;1.10;;;23.90;74.00;;;;;;5097428;28;20058;-71
2022/07/13 00:43:50;;;;;;;3.42;1.52;;;23.90;75.20;;;;;;5086486;28;20033;-71
2022/07/13 00:46:16;;;;;;;2.40;1.42;;;23.80;74.80;;;;;;5081156;28;20021;-71
2022/07/13 00:48:42;;;;;;;2.95;1.40;;;23.70;75.40;;;;;;5079771;28;20028;-71
2022/07/13 00:51:08;;;;;;;1.55;1.10;;;23.60;75.60;;;;;;5085000;28;20059;-71
2022/07/13 00:53:38;;;;;;;3.25;1.05;;;23.60;76.40;;;;;;5081479;28;20040;-71
2022/07/13 00:56:05;;;;;;;2.60;1.48;;;23.50;77.20;;;;;;5088678;28;20361;-71
2022/07/13 00:58:32;;;;;;;1.45;1.10;;;23.50;77.20;;;;;;5084835;28;20021;-71
2022/07/13 01:00:58;;;;;;;2.03;1.00;;;23.30;76.80;;;;;;5091319;28;20111;-71
2022/07/13 01:03:24;;;;;;;1.83;1.30;;;23.20;76.80;;;;;;5088741;28;20059;-71
2022/07/13 01:05:52;;;;;;;4.45;1.33;;;23.20;77.30;;;;;;5121771;27;20024;-73
2022/07/13 01:08:20;;;;;;;1.90;1.15;;;23.10;78.60;;;;;;5094849;28;20025;-72
2022/07/13 01:10:48;;;;;;;1.63;0.90;;;23.00;80.00;;;;;;5080576;28;20021;-71
2022/07/13 01:13:16;;;;;;;2.63;1.40;;;22.90;79.90;;;;;;5080401;28;20066;-73
2022/07/13 01:15:42;;;;;;;1.45;1.15;;;22.80;80.10;;;;;;5081122;28;20104;-71
2022/07/13 01:18:12;;;;;;;2.05;1.17;;;22.80;80.80;;;;;;5081603;28;20031;-71
2022/07/13 01:20:39;;;;;;;2.40;1.60;;;22.70;81.00;;;;;;5081885;28;20447;-72
2022/07/13 01:23:14;;;;;;;2.10;1.30;;;22.60;82.10;;;;;;5082978;28;20262;-71
2022/07/13 01:25:41;;;;;;;3.60;1.63;;;22.60;82.00;;;;;;5089171;28;20111;-71
2022/07/13 01:28:07;;;;;;;2.35;1.20;;;22.50;81.50;;;;;;5085577;28;20037;-71
2022/07/13 01:30:34;;;;;;;2.53;1.50;;;22.40;81.80;;;;;;5092660;28;20024;-71
2022/07/13 01:33:00;;;;;;;2.97;1.40;;;22.40;82.10;;;;;;5089478;28;20020;-71
2022/07/13 01:35:26;;;;;;;3.10;1.75;;;22.30;82.80;;;;;;5094617;28;20023;-71
2022/07/13 01:37:54;;;;;;;3.88;1.58;;;22.30;82.80;;;;;;5092847;28;20027;-71
2022/07/13 01:40:20;;;;;;;6.05;1.42;;;22.20;83.40;;;;;;5096557;28;20093;-72
2022/07/13 01:42:48;;;;;;;2.08;1.30;;;22.10;85.20;;;;;;5096205;28;20068;-72
2022/07/13 01:45:16;;;;;;;2.42;1.52;;;22.10;86.20;;;;;;5087820;28;20097;-72
2022/07/13 01:47:44;;;;;;;4.30;1.65;;;22.00;87.30;;;;;;5077693;28;20136;-71
2022/07/13 01:50:11;;;;;;;2.42;1.40;;;21.90;87.60;;;;;;5078482;28;20012;-72
2022/07/13 01:52:37;;;;;;;2.85;1.27;;;21.80;87.20;;;;;;5087613;28;20047;-71
2022/07/13 01:55:04;;;;;;;2.63;1.30;;;21.80;89.50;;;;;;5097752;28;20481;-70
2022/07/13 01:57:31;;;;;;;3.90;1.60;;;21.80;90.20;;;;;;5091748;28;20087;-70
2022/07/13 02:00:05;;;;;;;2.88;1.50;;;21.70;90.20;;;;;;5078757;28;20021;-70
2022/07/13 02:02:31;;;;;;;1.98;1.35;;;21.70;90.40;;;;;;5091868;28;20031;-70
2022/07/13 02:04:57;;;;;;;11.48;1.75;;;21.60;90.80;;;;;;5092302;28;20027;-70
2022/07/13 02:07:23;;;;;;;2.22;1.45;;;21.60;90.90;;;;;;5091319;28;20039;-70
2022/07/13 02:09:50;;;;;;;3.58;1.50;;;21.50;91.80;;;;;;5097115;28;20031;-72
2022/07/13 02:12:17;;;;;;;2.90;1.70;;;21.40;91.80;;;;;;5092274;28;20012;-70
2022/07/13 02:14:43;;;;;;;3.58;1.70;;;21.30;91.90;;;;;;5077598;28;20028;-70
2022/07/13 02:17:09;;;;;;;4.78;1.58;;;21.30;91.90;;;;;;5081315;28;20030;-70
2022/07/13 02:19:35;;;;;;;4.65;1.85;;;21.30;91.90;;;;;;5079171;28;20475;-70
2022/07/13 02:22:01;;;;;;;1.92;1.33;;;21.20;91.80;;;;;;5085449;28;20442;-70
2022/07/13 02:24:27;;;;;;;2.97;1.52;;;21.20;92.00;;;;;;5082150;28;20012;-70
2022/07/13 02:26:53;;;;;;;4.07;1.63;;;21.20;92.40;;;;;;5093365;28;20523;-70
2022/07/13 02:29:18;;;;;;;2.67;1.40;;;21.10;93.00;;;;;;5086266;28;20067;-70
2022/07/13 02:31:44;;;;;;;3.08;1.58;;;21.10;92.70;;;;;;5089058;28;20446;-70
2022/07/13 02:34:10;;;;;;;3.13;1.48;;;21.00;92.80;;;;;;5090221;28;20092;-72
2022/07/13 02:36:36;;;;;;;2.58;1.65;;;21.00;93.00;;;;;;5094390;28;20024;-70
2022/07/13 02:39:03;;;;;;;6.15;1.70;;;20.90;93.30;;;;;;5094871;28;20456;-71
2022/07/13 02:41:29;;;;;;;6.35;1.73;;;20.90;93.20;;;;;;5089547;28;20039;-71
2022/07/13 02:43:55;;;;;;;4.97;1.85;;;20.90;93.50;;;;;;5077072;28;20135;-71
2022/07/13 02:46:20;;;;;;;4.25;1.70;;;20.80;93.90;;;;;;5094736;28;20507;-71
2022/07/13 02:48:46;;;;;;;8.13;1.95;;;20.80;93.80;;;;;;5095993;28;20022;-71
2022/07/13 02:51:12;;;;;;;3.10;1.50;;;20.70;94.00;;;;;;5095908;28;20780;-71
2022/07/13 02:53:38;;;;;;;3.67;1.60;;;20.60;94.10;;;;;;5080114;28;20706;-71
2022/07/13 02:56:07;;;;;;;2.83;1.60;;;20.60;94.40;;;;;;5077963;28;20534;-71
2022/07/13 02:58:33;;;;;;;2.78;1.98;;;20.60;94.50;;;;;;5078180;28;20028;-71
2022/07/13 03:00:58;;;;;;;1.95;1.52;;;20.60;94.70;;;;;;5091857;28;20039;-70
2022/07/13 03:03:24;;;;;;;2.65;1.55;;;20.60;94.40;;;;;;5098382;28;20399;-71
2022/07/13 03:05:51;;;;;;;3.80;1.67;;;20.50;94.80;;;;;;5099501;28;20070;-71
2022/07/13 03:08:16;;;;;;;4.03;1.45;;;20.40;95.00;;;;;;5099705;28;20020;-71
2022/07/13 03:10:42;;;;;;;2.58;1.73;;;20.50;95.20;;;;;;5099729;28;20092;-70
2022/07/13 03:13:08;;;;;;;3.72;1.67;;;20.40;95.10;;;;;;5099447;28;20012;-71
2022/07/13 03:15:34;;;;;;;2.90;1.98;;;20.40;95.30;;;;;;5098191;28;20091;-72
2022/07/13 03:18:00;;;;;;;3.50;1.48;;;20.40;95.00;;;;;;5098448;28;20490;-72
2022/07/13 03:20:26;;;;;;;3.67;2.00;;;20.40;95.20;;;;;;5098883;28;20366;-71
2022/07/13 03:22:52;;;;;;;3.63;1.83;;;20.30;95.70;;;;;;5090928;28;20051;-72
2022/07/13 03:25:17;;;;;;;3.05;1.60;;;20.30;95.60;;;;;;5094545;28;20027;-72
2022/07/13 03:27:43;;;;;;;3.25;1.77;;;20.20;95.50;;;;;;5093849;28;20056;-72
2022/07/13 03:30:10;;;;;;;6.47;1.90;;;20.20;95.80;;;;;;5096698;28;20392;-72
2022/07/13 03:32:36;;;;;;;4.05;2.40;;;20.10;95.90;;;;;;5098044;28;20023;-72
2022/07/13 03:35:02;;;;;;;5.40;2.00;;;20.00;96.40;;;;;;5099634;28;20020;-72
2022/07/13 03:37:28;;;;;;;2.85;1.70;;;19.80;97.10;;;;;;5088874;28;20027;-72
2022/07/13 03:39:54;;;;;;;2.70;1.90;;;19.80;97.00;;;;;;5093031;28;20031;-72
2022/07/13 03:42:20;;;;;;;4.45;1.80;;;19.80;97.20;;;;;;5091124;28;20464;-72
2022/07/13 03:44:46;;;;;;;3.30;1.75;;;19.70;97.00;;;;;;5096264;28;20365;-72
2022/07/13 03:47:12;;;;;;;9.68;1.90;;;19.70;97.40;;;;;;5095103;28;20062;-72
2022/07/13 03:49:38;;;;;;;5.95;1.80;;;19.60;97.30;;;;;;5087928;28;20056;-72
2022/07/13 03:52:04;;;;;;;3.85;1.92;;;19.60;97.50;;;;;;5083035;28;20040;-72
2022/07/13 03:54:31;;;;;;;2.40;1.85;;;19.60;97.50;;;;;;5098758;28;20496;-72
2022/07/13 03:56:57;;;;;;;4.05;2.00;;;19.50;97.70;;;;;;5096181;28;20012;-72
2022/07/13 03:59:23;;;;;;;2.75;2.10;;;19.50;97.90;;;;;;5091739;28;20067;-72
2022/07/13 04:01:49;;;;;;;2.35;1.40;;;19.40;97.80;;;;;;5093890;28;20496;-72
2022/07/13 04:04:14;;;;;;;4.38;1.85;;;19.40;98.10;;;;;;5083033;28;20035;-72
2022/07/13 04:06:40;;;;;;;5.32;1.90;;;19.30;98.20;;;;;;5082457;28;20052;-70
2022/07/13 04:09:06;;;;;;;4.60;1.88;;;19.30;98.30;;;;;;5088193;28;20027;-70
2022/07/13 04:11:32;;;;;;;2.75;1.55;;;19.30;98.80;;;;;;5090584;28;20021;-72
2022/07/13 04:13:58;;;;;;;3.58;2.30;;;19.30;98.60;;;;;;5090414;28;20794;-70
2022/07/13 04:16:24;;;;;;;1.80;1.45;;;19.30;98.90;;;;;;5088691;28;20552;-70
2022/07/13 04:18:49;;;;;;;4.78;1.80;;;19.30;98.90;;;;;;5092660;28;20426;-70
2022/07/13 04:21:15;;;;;;;3.72;2.00;;;19.30;98.60;;;;;;5090218;28;20024;-70
2022/07/13 04:23:41;;;;;;;2.60;1.95;;;19.30;99.00;;;;;;5093497;28;20496;-70
2022/07/13 04:26:08;;;;;;;3.92;1.58;;;19.30;99.10;;;;;;5095896;28;20551;-70
2022/07/13 04:28:33;;;;;;;2.22;1.60;;;19.30;98.90;;;;;;5097297;28;20034;-70
2022/07/13 04:31:00;;;;;;;4.68;2.90;;;19.30;98.80;;;;;;5099000;28;20107;-70
2022/07/13 04:33:26;;;;;;;6.35;2.42;;;19.30;99.20;;;;;;5080077;28;20047;-70
2022/07/13 04:35:52;;;;;;;5.25;2.30;;;19.30;99.60;;;;;;5080834;28;20020;-70
2022/07/13 04:38:17;;;;;;;7.13;2.63;;;19.40;99.40;;;;;;5084550;28;20071;-70
2022/07/13 04:40:45;;;;;;;3.50;2.00;;;19.30;99.10;;;;;;5081587;28;20056;-70
2022/07/13 04:43:10;;;;;;;4.95;2.33;;;19.30;99.60;;;;;;5086686;28;20032;-70
2022/07/13 04:45:36;;;;;;;4.63;2.15;;;19.30;99.80;;;;;;5084849;28;20911;-70
2022/07/13 04:48:03;;;;;;;8.02;2.08;;;19.30;99.90;;;;;;5091115;28;20045;-70
2022/07/13 04:50:29;;;;;;;5.03;2.05;;;19.30;99.90;;;;;;5085422;28;20081;-70
2022/07/13 04:52:55;;;;;;;4.60;2.17;;;19.30;99.90;;;;;;5091494;28;20035;-70
2022/07/13 04:55:21;;;;;;;2.85;2.00;;;19.30;99.90;;;;;;5091199;28;20029;-70
2022/07/13 04:57:47;;;;;;;6.43;2.25;;;19.30;99.90;;;;;;5093915;28;20494;-70
2022/07/13 05:00:13;;;;;;;3.60;1.90;;;19.40;99.90;;;;;;5093793;28;20020;-70
2022/07/13 05:02:39;;;;;;;4.78;2.05;;;19.40;99.90;;;;;;5098551;28;20093;-70
2022/07/13 05:05:06;;;;;;;2.75;2.22;;;19.40;99.90;;;;;;5086072;28;20017;-70
2022/07/13 05:07:32;;;;;;;4.65;2.30;;;19.40;99.90;;;;;;5078948;28;20031;-70
2022/07/13 05:09:58;;;;;;;4.78;2.10;;;19.50;99.90;;;;;;5081103;28;20084;-70
2022/07/13 05:12:24;;;;;;;3.83;2.50;;;19.50;99.90;;;;;;5090807;28;20024;-70
2022/07/13 05:14:50;;;;;;;4.47;2.00;;;19.60;99.90;;;;;;5082317;28;20032;-71
2022/07/13 05:17:16;;;;;;;4.93;2.28;;;19.70;99.90;;;;;;5088237;28;20024;-70
2022/07/13 05:19:43;;;;;;;5.82;2.40;;;19.70;99.90;;;;;;5084806;28;20078;-70
2022/07/13 05:22:09;;;;;;;3.95;2.28;;;19.70;99.90;;;;;;5089112;28;20032;-70
2022/07/13 05:24:36;;;;;;;5.78;2.13;;;19.90;99.90;;;;;;5085966;28;20028;-70
2022/07/13 05:27:02;;;;;;;5.95;2.28;;;19.90;99.60;;;;;;5091880;28;20032;-70
2022/07/13 05:29:28;;;;;;;5.72;2.75;;;20.00;99.90;;;;;;5089344;28;20021;-70
2022/07/13 05:31:54;;;;;;;6.80;2.70;;;20.10;99.90;;;;;;5092365;28;20028;-70
2022/07/13 05:34:20;;;;;;;2.63;2.10;;;20.10;99.90;;;;;;5096628;28;20069;-71
2022/07/13 05:36:46;;;;;;;3.50;2.40;;;20.20;99.60;;;;;;5094514;28;20046;-71
2022/07/13 05:39:11;;;;;;;18.65;2.35;;;20.30;99.30;;;;;;5094831;28;20020;-71
2022/07/13 05:41:37;;;;;;;4.85;2.22;;;20.40;99.50;;;;;;5096124;28;20072;-71
2022/07/13 05:44:04;;;;;;;3.78;2.45;;;20.50;99.80;;;;;;5083181;28;20038;-71
2022/07/13 05:46:31;;;;;;;4.65;2.25;;;20.60;99.90;;;;;;5089748;28;20565;-71
2022/07/13 05:48:57;;;;;;;4.00;2.15;;;20.60;99.90;;;;;;5090649;28;20016;-71
2022/07/13 05:51:23;;;;;;;7.07;2.65;;;20.70;99.90;;;;;;5086892;28;20485;-71
2022/07/13 05:53:50;;;;;;;8.07;2.10;;;20.80;99.90;;;;;;5081828;28;20047;-71
2022/07/13 05:56:16;;;;;;;7.55;2.22;;;20.90;99.90;;;;;;5086507;28;20020;-70
2022/07/13 05:58:42;;;;;;;13.55;2.90;;;21.00;99.90;;;;;;5081987;28;20033;-72
2022/07/13 06:01:08;;;;;;;8.80;2.35;;;21.30;99.90;;;;;;5090533;28;20054;-74
2022/07/13 06:03:34;;;;;;;4.07;2.45;;;21.50;99.60;;;;;;5086526;28;20035;-72
2022/07/13 06:05:59;;;;;;;6.53;2.40;;;21.60;99.70;;;;;;5092625;28;20024;-72
2022/07/13 06:08:25;;;;;;;13.27;2.22;;;21.70;99.00;;;;;;5086364;28;20020;-73
2022/07/13 06:10:52;;;;;;;4.28;2.30;;;21.80;98.40;;;;;;5085455;28;20133;-72
2022/07/13 06:13:18;;;;;;;5.85;2.60;;;21.80;97.50;;;;;;5082694;28;20013;-73
2022/07/13 06:15:44;;;;;;;4.78;2.40;;;21.90;97.30;;;;;;5085468;28;20361;-72
2022/07/13 06:18:10;;;;;;;9.15;2.05;;;22.00;98.00;;;;;;5087967;28;20064;-71
2022/07/13 06:20:36;;;;;;;4.70;2.17;;;22.20;97.10;;;;;;5095614;28;20028;-71
2022/07/13 06:23:11;;;;;;;6.32;2.20;;;22.20;97.40;;;;;;5095981;28;20024;-71
2022/07/13 06:25:38;;;;;;;3.05;2.30;;;22.40;96.90;;;;;;5079654;28;20611;-71
2022/07/13 06:28:05;;;;;;;4.65;2.33;;;22.50;96.60;;;;;;5094386;28;20020;-71
2022/07/13 06:30:31;;;;;;;3.78;1.75;;;22.50;96.70;;;;;;5095276;28;20496;-72
2022/07/13 06:32:57;;;;;;;3.00;2.00;;;22.70;97.10;;;;;;5088059;28;20020;-73
2022/07/13 06:35:23;;;;;;;7.43;2.38;;;22.80;96.70;;;;;;5088829;28;20028;-74
2022/07/13 06:37:49;;;;;;;6.55;1.75;;;22.90;96.00;;;;;;5084174;28;20027;-73
2022/07/13 06:40:15;;;;;;;10.57;2.83;;;22.90;96.00;;;;;;5079332;28;20016;-73
2022/07/13 06:42:41;;;;;;;4.22;2.00;;;23.00;95.70;;;;;;5081469;28;20020;-73
2022/07/13 06:45:07;;;;;;;6.20;2.28;;;23.10;96.00;;;;;;5081243;28;20025;-73
2022/07/13 06:47:33;;;;;;;4.82;2.38;;;23.20;94.80;;;;;;5084834;28;20106;-73
2022/07/13 06:49:59;;;;;;;5.18;2.00;;;23.40;94.90;;;;;;5093184;28;20016;-73
2022/07/13 06:52:25;;;;;;;8.02;2.78;;;23.40;94.00;;;;;;5090328;28;20043;-74
2022/07/13 06:54:51;;;;;;;12.13;2.15;;;23.50;94.10;;;;;;5082229;28;20024;-73
2022/07/13 06:57:16;;;;;;;8.00;2.42;;;23.60;94.00;;;;;;5083277;28;20099;-73
2022/07/13 06:59:42;;;;;;;6.80;2.20;;;23.70;94.00;;;;;;5076753;28;20031;-73
2022/07/13 07:02:08;;;;;;;4.30;2.20;;;23.80;94.20;;;;;;5081509;28;20484;-73
2022/07/13 07:04:35;;;;;;;6.65;2.10;;;23.90;94.20;;;;;;5094369;28;20031;-73
2022/07/13 07:07:01;;;;;;;7.53;2.15;;;24.00;94.30;;;;;;5096886;28;20028;-73
2022/07/13 07:09:27;;;;;;;7.88;1.75;;;24.10;94.20;;;;;;5083357;28;20035;-73
2022/07/13 07:11:53;;;;;;;4.15;2.00;;;24.30;94.50;;;;;;5092887;28;20012;-74
2022/07/13 07:14:19;;;;;;;4.40;2.20;;;24.40;94.20;;;;;;5095530;28;20024;-75
2022/07/13 07:16:45;;;;;;;4.68;1.75;;;24.60;94.00;;;;;;5082833;28;20027;-73
2022/07/13 07:19:10;;;;;;;8.88;2.33;;;24.70;93.80;;;;;;5084029;28;20016;-74
2022/07/13 07:21:37;;;;;;;7.50;2.88;;;24.90;93.50;;;;;;5095107;28;20434;-74
2022/07/13 07:24:03;;;;;;;4.28;2.30;;;25.00;93.00;;;;;;5087020;28;20029;-74
2022/07/13 07:26:30;;;;;;;7.68;2.45;;;25.00;92.80;;;;;;5077180;28;20123;-74
2022/07/13 07:28:56;;;;;;;4.80;2.03;;;25.20;92.90;;;;;;5079172;28;20020;-74
2022/07/13 07:31:23;;;;;;;5.95;2.20;;;25.30;92.80;;;;;;5082739;28;20503;-74
2022/07/13 07:33:49;;;;;;;3.85;2.13;;;25.30;92.40;;;;;;5083559;28;20044;-73
2022/07/13 07:36:16;;;;;;;9.95;2.35;;;25.50;92.30;;;;;;5084869;28;20476;-73
2022/07/13 07:38:43;;;;;;;15.30;3.17;;;25.50;92.00;;;;;;5095646;28;20020;-74
2022/07/13 07:41:10;;;;;;;9.60;2.10;;;25.50;91.80;;;;;;5094296;28;20024;-74
2022/07/13 07:43:37;;;;;;;6.57;2.47;;;25.70;92.70;;;;;;5094435;28;20092;-73
2022/07/13 07:46:03;;;;;;;4.53;2.00;;;25.90;91.90;;;;;;5086846;28;20051;-74
2022/07/13 07:48:29;;;;;;;7.13;2.42;;;26.00;91.00;;;;;;5100101;28;20028;-74
2022/07/13 07:50:55;;;;;;;6.93;2.83;;;26.10;90.90;;;;;;5098771;28;20047;-74
2022/07/13 07:53:21;;;;;;;8.77;2.53;;;26.20;90.50;;;;;;5085651;28;20535;-74
2022/07/13 07:55:47;;;;;;;4.35;2.33;;;26.40;90.90;;;;;;5086668;28;20060;-74
2022/07/13 07:58:13;;;;;;;8.00;2.35;;;26.50;90.30;;;;;;5089558;28;20396;-74
2022/07/13 08:00:43;;;;;;;7.22;2.13;;;26.70;90.10;;;;;;5090067;28;20032;-72
2022/07/13 08:03:09;;;;;;;6.90;2.20;;;26.90;90.70;;;;;;5094268;28;20082;-73
2022/07/13 08:05:36;;;;;;;6.75;2.30;;;27.00;90.60;;;;;;5099493;28;20028;-73
2022/07/13 08:08:04;;;;;;;6.57;2.20;;;27.10;89.00;;;;;;5093714;28;20021;-71
2022/07/13 08:10:30;;;;;;;3.05;1.75;;;27.30;86.30;;;;;;5090766;28;20495;-71
2022/07/13 08:12:59;;;;;;;4.70;2.38;;;27.40;88.20;;;;;;5089908;28;20029;-72
2022/07/13 08:15:25;;;;;;;4.93;1.70;;;27.50;86.70;;;;;;5086962;28;20027;-71
2022/07/13 08:17:51;;;;;;;5.90;1.73;;;27.70;83.50;;;;;;5083578;28;20028;-72
2022/07/13 08:20:17;;;;;;;2.85;1.92;;;27.80;81.30;;;;;;5095624;28;20153;-72
2022/07/13 08:22:42;;;;;;;3.70;1.73;;;27.90;77.70;;;;;;5087182;28;20502;-72
2022/07/13 08:25:08;;;;;;;4.57;1.52;;;28.00;78.10;;;;;;5090023;28;20024;-72
2022/07/13 08:27:34;;;;;;;7.75;2.10;;;28.10;77.50;;;;;;5090545;28;20035;-71
2022/07/13 08:30:00;;;;;;;4.05;1.90;;;28.10;76.60;;;;;;5090322;28;20068;-72
2022/07/13 08:32:27;;;;;;;7.63;1.80;;;28.20;77.20;;;;;;5094713;28;20392;-71
2022/07/13 08:40:21;;;;;;;5.00;1.70;;;28.60;77.00;;;;;;5088247;28;20077;-71
2022/07/13 08:42:47;;;;;;;2.88;1.73;;;28.60;75.40;;;;;;5084182;28;20024;-72
2022/07/13 08:45:13;;;;;;;2.60;1.65;;;28.70;76.80;;;;;;5079913;28;20020;-72
2022/07/13 08:47:41;;;;;;;2.47;1.60;;;28.80;75.30;;;;;;5081480;28;20059;-73
2022/07/13 08:50:09;;;;;;;5.90;2.22;;;29.00;73.10;;;;;;5080639;28;20069;-72
2022/07/13 08:52:39;;;;;;;5.18;1.77;;;29.10;73.40;;;;;;5084302;28;20131;-72
2022/07/13 08:55:06;;;;;;;6.80;1.80;;;29.10;72.70;;;;;;5084790;28;20017;-72
2022/07/13 08:57:34;;;;;;;2.88;1.75;;;29.30;73.80;;;;;;5084447;28;20032;-72
2022/07/13 09:00:02;;;;;;;5.43;1.92;;;29.40;72.40;;;;;;5086851;28;20381;-72
2022/07/13 09:02:28;;;;;;;4.05;1.73;;;29.60;72.80;;;;;;5093666;28;20540;-72
2022/07/13 09:04:54;;;;;;;4.82;1.40;;;29.70;70.00;;;;;;5097290;28;20109;-72
2022/07/13 09:07:20;;;;;;;3.70;1.65;;;29.70;72.10;;;;;;5094917;28;20036;-72
2022/07/13 09:09:46;;;;;;;4.65;1.77;;;29.80;70.90;;;;;;5087622;28;20036;-72
2022/07/13 09:12:16;;;;;;;3.53;1.83;;;29.90;70.50;;;;;;5092039;28;20028;-72
2022/07/13 09:14:43;;;;;;;;;;;30.00;71.20;;;;;;5081269;28;20063;-73
2022/07/13 09:17:32;;;;;;;8.40;1.70;;;30.10;71.40;;;;;;5087639;28;19904;-72
2022/07/13 09:20:03;;;;;;;3.30;1.50;;;30.20;67.10;;;;;;5093523;28;20099;-72
2022/07/13 09:22:29;;;;;;;6.65;1.75;;;30.20;67.50;;;;;;5087057;28;20028;-73
2022/07/13 09:24:55;;;;;;;4.63;1.75;;;30.20;69.20;;;;;;5088067;28;20025;-72
2022/07/13 09:27:23;;;;;;;8.18;2.15;;;30.30;69.50;;;;;;5091972;28;20038;-73
2022/07/13 09:29:49;;;;;;;2.88;1.40;;;30.30;68.10;;;;;;5089664;28;20024;-72
2022/07/13 09:32:15;;;;;;;4.55;1.50;;;30.40;70.00;;;;;;5094680;28;20023;-72
2022/07/13 09:34:53;;;;;;;3.05;1.70;;;30.40;67.80;;;;;;5093188;28;20027;-72
2022/07/13 09:37:22;;;;;;;3.97;1.73;;;30.60;67.90;;;;;;5097579;28;20035;-73
2022/07/13 09:40:08;;;;;;;6.55;1.67;;;30.60;66.00;;;;;;5093041;28;20023;-72
2022/07/13 09:42:40;;;;;;;4.90;1.67;;;30.70;67.00;;;;;;5078596;28;20029;-72
2022/07/13 09:47:53;;;;;;;2.00;1.20;;;31.00;64.30;;;;;;5083668;28;20403;-72
2022/07/13 09:50:22;;;;;;;5.28;1.27;;;31.10;65.10;;;;;;5077803;28;20106;-72
2022/07/13 09:52:49;;;;;;;7.63;1.67;;;31.10;62.90;;;;;;5085796;28;20832;-72
2022/07/13 09:55:20;;;;;;;4.60;1.38;;;31.30;62.00;;;;;;5083020;28;20013;-72
2022/07/13 09:57:57;;;;;;;5.93;1.48;;;31.30;62.60;;;;;;5088384;28;20055;-72
2022/07/13 10:00:24;;;;;;;8.75;1.30;;;31.50;64.70;;;;;;5084664;28;20044;-75
2022/07/13 10:02:50;;;;;;;2.08;1.20;;;31.50;63.00;;;;;;5097727;28;20051;-75
2022/07/13 10:05:18;;;;;;;2.28;1.13;;;31.50;62.10;;;;;;5093163;28;20043;-75
2022/07/13 10:07:46;;;;;;;3.00;1.50;;;31.50;62.50;;;;;;5094171;28;20031;-74
2022/07/13 10:10:16;;;;;;;3.03;1.10;;;31.60;61.40;;;;;;5092578;28;20082;-74
2022/07/13 10:12:43;;;;;;;2.97;1.50;;;31.40;59.70;;;;;;5095945;28;20042;-75
2022/07/13 10:15:11;;;;;;;3.35;1.25;;;31.40;59.70;;;;;;5096757;28;20028;-74
2022/07/13 10:17:38;;;;;;;2.40;1.13;;;31.50;62.80;;;;;;5086407;28;20013;-74
2022/07/13 10:20:10;;;;;;;3.28;1.33;;;31.60;61.60;;;;;;5085198;28;20733;-75
2022/07/13 10:22:45;;;;;;;1.45;1.00;;;31.70;60.70;;;;;;5088034;28;20118;-74
2022/07/13 10:25:12;;;;;;;3.58;1.20;;;31.70;59.80;;;;;;5096239;28;20077;-74
2022/07/13 10:27:41;;;;;;;3.17;1.40;;;31.70;62.50;;;;;;5088164;28;20070;-74
2022/07/13 10:30:10;;;;;;;3.42;1.55;;;31.80;59.50;;;;;;5083155;28;20020;-75
2022/07/13 10:32:38;;;;;;;5.22;1.30;;;31.80;59.20;;;;;;5083637;28;20027;-75
2022/07/13 10:35:09;;;;;;;1.70;1.10;;;31.90;61.10;;;;;;5095251;28;20028;-75
2022/07/13 10:37:58;;;;;;;2.15;1.35;;;32.00;61.30;;;;;;5094194;28;20021;-73
2022/07/13 10:40:28;;;;;;;3.17;1.30;;;32.00;58.80;;;;;;5097142;28;20016;-73
2022/07/13 10:42:54;;;;;;;2.75;1.20;;;31.90;58.10;;;;;;5093233;28;20020;-73
2022/07/13 10:45:32;;;;;;;6.65;1.45;;;31.90;57.90;;;;;;5088341;28;20451;-73
2022/07/13 10:47:59;;;;;;;4.53;1.20;;;32.10;58.90;;;;;;5096743;28;20096;-73
2022/07/13 10:50:26;;;;;;;1.50;1.10;;;32.00;59.70;;;;;;5085646;28;20052;-73
2022/07/13 10:52:52;;;;;;;6.88;1.35;;;32.10;59.30;;;;;;5079953;28;20072;-74
2022/07/13 10:55:21;;;;;;;2.83;1.35;;;32.30;58.60;;;;;;5089554;28;20381;-74
2022/07/13 10:57:47;;;;;;;3.47;1.35;;;32.40;60.00;;;;;;5085235;28;20034;-73
2022/07/13 11:00:18;;;;;;;2.92;1.13;;;32.50;59.50;;;;;;5086733;28;20080;-74
2022/07/13 11:02:51;;;;;;;3.78;1.50;;;32.50;58.70;;;;;;5086272;28;20024;-73
2022/07/13 11:05:29;;;;;;;4.53;1.20;;;32.50;58.90;;;;;;5091571;28;20032;-73
2022/07/13 11:07:55;;;;;;;4.18;1.20;;;32.60;58.70;;;;;;5093970;28;20043;-73
2022/07/13 11:10:26;;;;;;;4.72;1.20;;;32.60;57.80;;;;;;5095123;28;20032;-74
2022/07/13 11:13:01;;;;;;;2.53;1.40;;;32.60;58.40;;;;;;5095388;28;20426;-73
2022/07/13 11:15:48;;;;;;;1.88;1.20;;;32.70;58.70;;;;;;5094453;28;20478;-76
2022/07/13 11:18:32;;;;;;;3.10;1.60;;;32.70;56.80;;;;;;5085146;28;20461;-73
2022/07/13 11:21:23;;;;;;;1.77;1.40;;;32.80;57.80;;;;;;5092259;28;20020;-73
2022/07/13 11:26:51;;;;;;;3.58;1.80;;;33.00;56.70;;;;;;5096962;28;20035;-75
2022/07/13 11:29:57;;;;;;;3.67;1.33;;;33.10;57.60;;;;;;5090949;28;20499;-76
2022/07/13 11:32:25;;;;;;;3.60;1.10;;;33.00;55.20;;;;;;5083084;28;20488;-75
2022/07/13 11:34:52;;;;;;;3.35;1.70;;;33.10;55.60;;;;;;5087539;28;20027;-75
2022/07/13 11:37:25;;;;;;;3.08;1.55;;;33.00;54.00;;;;;;5085014;28;20435;-75
2022/07/13 11:39:51;;;;;;;2.95;1.73;;;33.10;54.50;;;;;;5099084;28;20028;-75
2022/07/13 11:42:23;;;;;;;1.88;1.40;;;33.20;54.90;;;;;;5087454;28;20101;-75
2022/07/13 11:44:51;;;;;;;2.70;1.70;;;33.20;54.40;;;;;;5093837;28;20024;-75
2022/07/13 11:47:17;;;;;;;2.15;1.42;;;33.20;56.10;;;;;;5090387;28;20107;-76
2022/07/13 11:49:48;;;;;;;7.47;1.75;;;33.30;56.40;;;;;;5095732;28;20047;-76
2022/07/13 11:52:25;;;;;;;4.20;1.40;;;33.30;55.40;;;;;;5093113;28;20051;-75
2022/07/13 11:55:02;;;;;;;2.20;1.50;;;33.40;57.00;;;;;;5089367;28;20016;-75
2022/07/13 11:57:30;;;;;;;1.48;1.15;;;33.50;55.30;;;;;;5097581;28;20032;-76
2022/07/13 12:00:06;;;;;;;2.78;1.55;;;33.50;54.50;;;;;;5096677;28;20035;-75
2022/07/13 12:02:34;;;;;;;4.75;2.00;;;33.70;54.60;;;;;;5096426;28;20032;-75
2022/07/13 12:05:00;;;;;;;2.03;1.38;;;33.60;54.40;;;;;;5100174;28;20396;-76
2022/07/13 12:07:30;;;;;;;2.47;1.33;;;33.70;54.90;;;;;;5092526;28;20040;-75
2022/07/13 12:09:57;;;;;;;5.43;2.15;;;33.70;52.90;;;;;;5090995;28;20049;-75
2022/07/13 12:12:33;;;;;;;6.45;1.70;;;33.80;54.80;;;;;;5094327;28;20043;-75
2022/07/13 12:14:59;;;;;;;4.65;1.80;;;33.90;55.10;;;;;;5095994;28;20020;-75
2022/07/13 12:17:27;;;;;;;4.60;1.70;;;33.90;53.50;;;;;;5098084;28;20026;-75
2022/07/13 12:20:09;;;;;;;4.80;1.45;;;33.80;53.60;;;;;;5099225;28;20024;-75
2022/07/13 12:22:36;;;;;;;2.47;1.35;;;34.00;55.00;;;;;;5080789;28;20025;-76
2022/07/13 12:25:03;;;;;;;2.15;1.50;;;34.00;54.70;;;;;;5082791;28;20020;-75
2022/07/13 12:27:29;;;;;;;4.35;1.55;;;34.10;54.50;;;;;;5082209;28;20514;-75
2022/07/13 12:30:15;;;;;;;6.40;1.80;;;34.00;53.80;;;;;;5092592;28;20024;-75
2022/07/13 12:33:07;;;;;;;6.10;2.00;;;34.10;52.50;;;;;;5088354;28;20016;-75
2022/07/13 12:35:36;;;;;;;4.03;1.80;;;34.20;51.20;;;;;;5084327;28;20468;-74
2022/07/13 12:38:11;;;;;;;6.65;2.58;;;34.20;53.40;;;;;;5083468;28;20115;-74
2022/07/13 12:40:43;;;;;;;8.88;2.65;;;34.30;52.80;;;;;;5089061;28;20472;-75
2022/07/13 12:43:23;;;;;;;3.80;1.83;;;34.50;53.20;;;;;;5096790;28;20024;-74
2022/07/13 12:45:55;;;;;;;5.63;1.92;;;34.50;52.10;;;;;;5091704;28;20060;-75
2022/07/13 12:48:23;;;;;;;4.38;1.75;;;34.60;53.60;;;;;;5088542;28;20054;-75
2022/07/13 12:51:03;;;;;;;8.18;2.20;;;34.70;52.10;;;;;;5097455;28;20028;-75
2022/07/13 12:53:49;;;;;;;3.25;2.30;;;34.80;51.70;;;;;;5089199;28;20400;-75
2022/07/13 12:56:16;;;;;;;3.90;2.05;;;34.90;51.30;;;;;;5096889;28;20027;-75
2022/07/13 12:58:49;;;;;;;2.63;1.95;;;35.00;51.20;;;;;;5098853;28;20020;-75
2022/07/13 13:01:28;;;;;;;2.78;1.80;;;35.00;51.30;;;;;;5094247;28;20073;-75